sensor_id;sensor_type;location;lat;lon;timestamp;pressure;altitude;pressure_sealevel;temperature;humidity
80405;BME280;69733;48.744;9.176;2023-07-29T00:01:30;96413.31;;;16.06;83.98
80405;BME280;69733;48.744;9.176;2023-07-29T00:03:55;96399.63;;;16.08;84.12
80405;BME280;69733;48.744;9.176;2023-07-29T00:06:21;96398.28;;;16.10;84.12
80405;BME280;69733;48.744;9.176;2023-07-29T00:08:46;96388.34;;;16.11;84.11
80405;BME280;69733;48.744;9.176;2023-07-29T00:11:11;96390.72;;;16.12;83.96
80405;BME280;69733;48.744;9.176;2023-07-29T00:13:37;96387.53;;;16.15;83.94
80405;BME280;69733;48.744;9.176;2023-07-29T00:16:02;96388.84;;;16.18;83.79
80405;BME280;69733;48.744;9.176;2023-07-29T00:18:27;96389.13;;;16.21;83.80
80405;BME280;69733;48.744;9.176;2023-07-29T00:20:53;96395.28;;;16.22;84.14
80405;BME280;69733;48.744;9.176;2023-07-29T00:23:18;96390.19;;;16.25;83.99
80405;BME280;69733;48.744;9.176;2023-07-29T00:25:44;96383.72;;;16.26;83.81
80405;BME280;69733;48.744;9.176;2023-07-29T00:28:10;96390.44;;;16.29;83.72
80405;BME280;69733;48.744;9.176;2023-07-29T00:30:35;96394.69;;;16.30;83.94
80405;BME280;69733;48.744;9.176;2023-07-29T00:33:00;96385.88;;;16.29;83.99
80405;BME280;69733;48.744;9.176;2023-07-29T00:35:26;96384.78;;;16.30;84.28
80405;BME280;69733;48.744;9.176;2023-07-29T00:37:51;96386.38;;;16.31;84.02
80405;BME280;69733;48.744;9.176;2023-07-29T00:40:21;96381.53;;;16.33;84.19
80405;BME280;69733;48.744;9.176;2023-07-29T00:42:50;96376.97;;;16.34;84.44
80405;BME280;69733;48.744;9.176;2023-07-29T00:45:16;96375.09;;;16.34;84.25
80405;BME280;69733;48.744;9.176;2023-07-29T00:47:42;96374.84;;;16.36;84.25
80405;BME280;69733;48.744;9.176;2023-07-29T00:50:09;96379.91;;;16.37;84.29
80405;BME280;69733;48.744;9.176;2023-07-29T00:52:38;96372.94;;;16.36;84.30
80405;BME280;69733;48.744;9.176;2023-07-29T00:55:05;96379.09;;;16.37;84.45
80405;BME280;69733;48.744;9.176;2023-07-29T00:57:31;96377.50;;;16.36;84.47
80405;BME280;69733;48.744;9.176;2023-07-29T01:00:00;96381.78;;;16.37;84.49
80405;BME280;69733;48.744;9.176;2023-07-29T01:02:26;96381.78;;;16.37;84.46
80405;BME280;69733;48.744;9.176;2023-07-29T01:05:01;96371.84;;;16.37;84.17
80405;BME280;69733;48.744;9.176;2023-07-29T01:07:32;96372.66;;;16.38;84.65
80405;BME280;69733;48.744;9.176;2023-07-29T01:15:33;96361.41;;;16.36;84.65
80405;BME280;69733;48.744;9.176;2023-07-29T01:18:28;96360.59;;;16.35;84.96
80405;BME280;69733;48.744;9.176;2023-07-29T01:20:59;96369.97;;;16.38;84.87
80405;BME280;69733;48.744;9.176;2023-07-29T01:23:26;96363.78;;;16.37;85.05
80405;BME280;69733;48.744;9.176;2023-07-29T01:25:51;96368.09;;;16.38;84.90
80405;BME280;69733;48.744;9.176;2023-07-29T01:28:16;96365.41;;;16.38;84.89
80405;BME280;69733;48.744;9.176;2023-07-29T01:30:43;96363.53;;;16.39;84.79
80405;BME280;69733;48.744;9.176;2023-07-29T01:33:26;96362.16;;;16.41;84.96
80405;BME280;69733;48.744;9.176;2023-07-29T01:36:01;96364.31;;;16.44;84.83
80405;BME280;69733;48.744;9.176;2023-07-29T01:38:29;96373.16;;;16.45;84.98
80405;BME280;69733;48.744;9.176;2023-07-29T01:41:00;96364.03;;;16.46;84.99
80405;BME280;69733;48.744;9.176;2023-07-29T01:43:27;96365.09;;;16.50;84.98
80405;BME280;69733;48.744;9.176;2023-07-29T01:45:53;96360.25;;;16.52;84.77
80405;BME280;69733;48.744;9.176;2023-07-29T01:48:18;96363.72;;;16.53;85.05
80405;BME280;69733;48.744;9.176;2023-07-29T01:50:44;96363.72;;;16.53;85.09
80405;BME280;69733;48.744;9.176;2023-07-29T01:53:09;96355.66;;;16.53;84.94
80405;BME280;69733;48.744;9.176;2023-07-29T01:55:34;96353.00;;;16.53;85.06
80405;BME280;69733;48.744;9.176;2023-07-29T01:58:00;96351.91;;;16.54;85.09
80405;BME280;69733;48.744;9.176;2023-07-29T02:00:25;96358.88;;;16.55;85.04
80405;BME280;69733;48.744;9.176;2023-07-29T02:02:50;96346.25;;;16.55;85.32
80405;BME280;69733;48.744;9.176;2023-07-29T02:05:16;96341.72;;;16.56;85.05
80405;BME280;69733;48.744;9.176;2023-07-29T02:07:41;96340.38;;;16.53;85.28
80405;BME280;69733;48.744;9.176;2023-07-29T02:10:07;96349.78;;;16.51;85.49
80405;BME280;69733;48.744;9.176;2023-07-29T02:12:32;96343.59;;;16.50;85.40
80405;BME280;69733;48.744;9.176;2023-07-29T02:14:58;96332.06;;;16.50;85.46
80405;BME280;69733;48.744;9.176;2023-07-29T02:17:23;96326.44;;;16.46;85.50
80405;BME280;69733;48.744;9.176;2023-07-29T02:19:48;96334.25;;;16.42;85.76
80405;BME280;69733;48.744;9.176;2023-07-29T02:22:15;96323.50;;;16.37;86.15
80405;BME280;69733;48.744;9.176;2023-07-29T02:24:40;96325.44;;;16.32;85.95
80405;BME280;69733;48.744;9.176;2023-07-29T02:27:06;96330.56;;;16.28;86.16
80405;BME280;69733;48.744;9.176;2023-07-29T02:29:31;96329.22;;;16.26;86.25
80405;BME280;69733;48.744;9.176;2023-07-29T02:31:58;96325.75;;;16.25;86.36
80405;BME280;69733;48.744;9.176;2023-07-29T02:34:23;96324.13;;;16.24;86.21
80405;BME280;69733;48.744;9.176;2023-07-29T02:36:48;96330.31;;;16.25;86.38
80405;BME280;69733;48.744;9.176;2023-07-29T02:39:14;96328.13;;;16.27;86.21
80405;BME280;69733;48.744;9.176;2023-07-29T02:41:39;96332.69;;;16.26;86.13
80405;BME280;69733;48.744;9.176;2023-07-29T02:44:05;96324.63;;;16.26;86.50
80405;BME280;69733;48.744;9.176;2023-07-29T02:46:30;96328.13;;;16.27;86.23
80405;BME280;69733;48.744;9.176;2023-07-29T02:48:56;96323.56;;;16.27;86.08
80405;BME280;69733;48.744;9.176;2023-07-29T02:51:21;96327.31;;;16.26;86.20
80405;BME280;69733;48.744;9.176;2023-07-29T02:53:46;96315.00;;;16.25;86.41
80405;BME280;69733;48.744;9.176;2023-07-29T02:56:12;96320.38;;;16.25;86.25
80405;BME280;69733;48.744;9.176;2023-07-29T02:58:37;96323.06;;;16.25;86.06
80405;BME280;69733;48.744;9.176;2023-07-29T03:01:04;96318.50;;;16.26;86.14
80405;BME280;69733;48.744;9.176;2023-07-29T03:03:30;96321.94;;;16.26;86.46
80405;BME280;69733;48.744;9.176;2023-07-29T03:08:25;96316.59;;;16.26;86.36
80405;BME280;69733;48.744;9.176;2023-07-29T03:10:50;96312.81;;;16.27;86.47
80405;BME280;69733;48.744;9.176;2023-07-29T03:13:15;96310.16;;;16.27;86.27
80405;BME280;69733;48.744;9.176;2023-07-29T03:15:41;96309.34;;;16.27;86.34
80405;BME280;69733;48.744;9.176;2023-07-29T03:18:06;96298.09;;;16.25;86.64
80405;BME280;69733;48.744;9.176;2023-07-29T03:20:31;96303.72;;;16.23;86.54
80405;BME280;69733;48.744;9.176;2023-07-29T03:22:56;96298.34;;;16.23;86.55
80405;BME280;69733;48.744;9.176;2023-07-29T03:25:22;96291.09;;;16.24;86.67
80405;BME280;69733;48.744;9.176;2023-07-29T03:27:47;96286.53;;;16.24;86.49
80405;BME280;69733;48.744;9.176;2023-07-29T03:30:14;96288.16;;;16.25;86.55
80405;BME280;69733;48.744;9.176;2023-07-29T03:32:43;96285.47;;;16.25;86.64
80405;BME280;69733;48.744;9.176;2023-07-29T03:35:10;96288.16;;;16.25;86.58
80405;BME280;69733;48.744;9.176;2023-07-29T03:37:36;96290.28;;;16.28;86.62
80405;BME280;69733;48.744;9.176;2023-07-29T03:40:01;96291.91;;;16.29;86.55
80405;BME280;69733;48.744;9.176;2023-07-29T03:42:28;96281.66;;;16.31;86.65
80405;BME280;69733;48.744;9.176;2023-07-29T03:44:53;96285.66;;;16.34;86.06
80405;BME280;69733;48.744;9.176;2023-07-29T03:47:18;96285.66;;;16.34;86.35
80405;BME280;69733;48.744;9.176;2023-07-29T03:49:44;96278.16;;;16.36;86.46
80405;BME280;69733;48.744;9.176;2023-07-29T03:52:09;96279.47;;;16.38;86.20
80405;BME280;69733;48.744;9.176;2023-07-29T03:54:35;96286.97;;;16.41;86.22
80405;BME280;69733;48.744;9.176;2023-07-29T03:57:00;96293.16;;;16.42;86.36
80405;BME280;69733;48.744;9.176;2023-07-29T03:59:25;96290.97;;;16.44;86.29
80405;BME280;69733;48.744;9.176;2023-07-29T04:01:51;96292.34;;;16.47;86.35
80405;BME280;69733;48.744;9.176;2023-07-29T04:04:16;96292.84;;;16.49;86.23
80405;BME280;69733;48.744;9.176;2023-07-29T04:06:41;96293.38;;;16.51;86.35
80405;BME280;69733;48.744;9.176;2023-07-29T04:09:07;96296.06;;;16.51;86.51
80405;BME280;69733;48.744;9.176;2023-07-29T04:11:33;96292.28;;;16.52;86.34
80405;BME280;69733;48.744;9.176;2023-07-29T04:13:58;96307.59;;;16.51;86.48
80405;BME280;69733;48.744;9.176;2023-07-29T04:16:24;96296.06;;;16.51;86.81
80405;BME280;69733;48.744;9.176;2023-07-29T04:18:49;96282.09;;;16.49;86.59
80405;BME280;69733;48.744;9.176;2023-07-29T04:21:14;96284.78;;;16.49;86.83
80405;BME280;69733;48.744;9.176;2023-07-29T04:23:40;96287.22;;;16.50;86.74
80405;BME280;69733;48.744;9.176;2023-07-29T04:26:05;96293.09;;;16.52;86.72
80405;BME280;69733;48.744;9.176;2023-07-29T04:28:31;96292.81;;;16.54;86.73
80405;BME280;69733;48.744;9.176;2023-07-29T04:30:56;96297.09;;;16.55;86.93
80405;BME280;69733;48.744;9.176;2023-07-29T04:33:21;96303.28;;;16.55;86.75
80405;BME280;69733;48.744;9.176;2023-07-29T04:35:46;96297.09;;;16.55;86.99
80405;BME280;69733;48.744;9.176;2023-07-29T04:38:12;96290.13;;;16.54;87.11
80405;BME280;69733;48.744;9.176;2023-07-29T04:40:37;96292.81;;;16.54;87.08
80405;BME280;69733;48.744;9.176;2023-07-29T04:43:02;96307.31;;;16.53;87.20
80405;BME280;69733;48.744;9.176;2023-07-29T04:45:28;96296.84;;;16.51;87.29
80405;BME280;69733;48.744;9.176;2023-07-29T04:47:54;96307.88;;;16.50;87.46
80405;BME280;69733;48.744;9.176;2023-07-29T04:50:20;96314.06;;;16.50;87.36
80405;BME280;69733;48.744;9.176;2023-07-29T04:52:45;96305.47;;;16.48;87.40
80405;BME280;69733;48.744;9.176;2023-07-29T04:55:10;96317.31;;;16.47;87.63
80405;BME280;69733;48.744;9.176;2023-07-29T04:57:36;96336.88;;;16.48;87.58
80405;BME280;69733;48.744;9.176;2023-07-29T05:00:02;96327.75;;;16.49;87.62
80405;BME280;69733;48.744;9.176;2023-07-29T05:02:28;96319.44;;;16.50;87.62
80405;BME280;69733;48.744;9.176;2023-07-29T05:04:53;96318.63;;;16.50;87.40
80405;BME280;69733;48.744;9.176;2023-07-29T05:07:18;96317.81;;;16.49;87.72
80405;BME280;69733;48.744;9.176;2023-07-29T05:09:44;96323.44;;;16.53;87.68
80405;BME280;69733;48.744;9.176;2023-07-29T05:12:09;96307.06;;;16.54;87.49
80405;BME280;69733;48.744;9.176;2023-07-29T05:14:34;96302.47;;;16.55;87.60
80405;BME280;69733;48.744;9.176;2023-07-29T05:17:00;96293.38;;;16.56;87.68
80405;BME280;69733;48.744;9.176;2023-07-29T05:19:26;96296.28;;;16.59;87.86
80405;BME280;69733;48.744;9.176;2023-07-29T05:21:51;96292.22;;;16.67;87.50
80405;BME280;69733;48.744;9.176;2023-07-29T05:24:16;96292.72;;;16.74;87.17
80405;BME280;69733;48.744;9.176;2023-07-29T05:26:42;96287.84;;;16.76;87.41
80405;BME280;69733;48.744;9.176;2023-07-29T05:29:07;96298.06;;;16.79;87.11
80405;BME280;69733;48.744;9.176;2023-07-29T05:31:32;96303.69;;;16.82;87.27
80405;BME280;69733;48.744;9.176;2023-07-29T05:33:58;96312.50;;;16.88;87.26
80405;BME280;69733;48.744;9.176;2023-07-29T05:36:24;96303.59;;;16.92;87.28
80405;BME280;69733;48.744;9.176;2023-07-29T05:38:49;96304.88;;;17.00;87.04
80405;BME280;69733;48.744;9.176;2023-07-29T05:41:15;96303.19;;;17.09;86.60
80405;BME280;69733;48.744;9.176;2023-07-29T05:43:40;96296.66;;;17.20;86.63
80405;BME280;69733;48.744;9.176;2023-07-29T05:46:08;96295.19;;;17.33;86.13
80405;BME280;69733;48.744;9.176;2023-07-29T05:48:33;96298.00;;;17.47;85.66
80405;BME280;69733;48.744;9.176;2023-07-29T05:50:59;96284.16;;;17.63;85.45
80405;BME280;69733;48.744;9.176;2023-07-29T05:53:24;96294.91;;;17.87;84.80
80405;BME280;69733;48.744;9.176;2023-07-29T05:55:49;96289.09;;;18.22;84.07
80405;BME280;69733;48.744;9.176;2023-07-29T05:58:15;96281.16;;;18.55;83.36
80405;BME280;69733;48.744;9.176;2023-07-29T06:00:40;96282.19;;;18.59;83.44
80405;BME280;69733;48.744;9.176;2023-07-29T06:03:06;96281.31;;;18.63;83.65
80405;BME280;69733;48.744;9.176;2023-07-29T06:05:31;96277.66;;;18.73;83.65
80405;BME280;69733;48.744;9.176;2023-07-29T06:07:57;96273.63;;;18.89;83.58
80405;BME280;69733;48.744;9.176;2023-07-29T06:10:22;96275.44;;;19.58;81.93
80405;BME280;69733;48.744;9.176;2023-07-29T06:12:47;96272.16;;;19.88;81.47
80405;BME280;69733;48.744;9.176;2023-07-29T06:15:13;96271.66;;;20.14;81.24
80405;BME280;69733;48.744;9.176;2023-07-29T06:17:39;96267.44;;;20.21;81.43
80405;BME280;69733;48.744;9.176;2023-07-29T06:20:06;96283.53;;;20.54;81.10
80405;BME280;69733;48.744;9.176;2023-07-29T06:22:31;96281.66;;;20.99;80.14
80405;BME280;69733;48.744;9.176;2023-07-29T06:24:57;96279.88;;;21.61;78.65
80405;BME280;69733;48.744;9.176;2023-07-29T06:27:22;96282.03;;;21.81;78.91
80405;BME280;69733;48.744;9.176;2023-07-29T06:29:47;96287.56;;;21.76;79.75
80405;BME280;69733;48.744;9.176;2023-07-29T06:32:13;96292.44;;;21.57;80.89
80405;BME280;69733;48.744;9.176;2023-07-29T06:34:38;96303.09;;;21.31;81.52
80405;BME280;69733;48.744;9.176;2023-07-29T06:37:03;96296.28;;;21.11;82.55
80405;BME280;69733;48.744;9.176;2023-07-29T06:39:29;96299.84;;;20.84;83.45
80405;BME280;69733;48.744;9.176;2023-07-29T06:41:54;96306.03;;;20.63;84.42
80405;BME280;69733;48.744;9.176;2023-07-29T06:44:19;96313.97;;;20.46;84.96
80405;BME280;69733;48.744;9.176;2023-07-29T06:46:45;96307.31;;;20.29;85.36
80405;BME280;69733;48.744;9.176;2023-07-29T06:49:11;96300.75;;;20.17;85.71
80405;BME280;69733;48.744;9.176;2023-07-29T06:51:36;96301.78;;;20.07;86.22
80405;BME280;69733;48.744;9.176;2023-07-29T06:54:02;96310.78;;;20.03;86.32
80405;BME280;69733;48.744;9.176;2023-07-29T06:56:28;96318.88;;;19.89;86.74
80405;BME280;69733;48.744;9.176;2023-07-29T06:58:53;96323.75;;;19.73;87.22
80405;BME280;69733;48.744;9.176;2023-07-29T07:01:19;96325.72;;;19.54;87.87
80405;BME280;69733;48.744;9.176;2023-07-29T07:03:44;96331.94;;;19.36;88.43
80405;BME280;69733;48.744;9.176;2023-07-29T07:06:09;96336.75;;;19.20;89.00
80405;BME280;69733;48.744;9.176;2023-07-29T07:08:35;96345.13;;;19.05;89.56
80405;BME280;69733;48.744;9.176;2023-07-29T07:11:00;96340.81;;;18.85;89.96
80405;BME280;69733;48.744;9.176;2023-07-29T07:13:25;96344.81;;;18.69;90.73
80405;BME280;69733;48.744;9.176;2023-07-29T07:15:54;96344.75;;;18.56;91.22
80405;BME280;69733;48.744;9.176;2023-07-29T07:18:19;96349.94;;;18.47;91.38
80405;BME280;69733;48.744;9.176;2023-07-29T07:20:48;96344.09;;;18.40;91.42
80405;BME280;69733;48.744;9.176;2023-07-29T07:23:18;96339.56;;;18.35;91.27
80405;BME280;69733;48.744;9.176;2023-07-29T07:25:44;96332.28;;;18.36;91.16
80405;BME280;69733;48.744;9.176;2023-07-29T07:28:09;96334.72;;;18.37;91.02
80405;BME280;69733;48.744;9.176;2023-07-29T07:30:35;96338.44;;;18.42;90.54
80405;BME280;69733;48.744;9.176;2023-07-29T07:33:00;96331.38;;;18.46;90.29
80405;BME280;69733;48.744;9.176;2023-07-29T07:35:25;96337.78;;;18.50;90.03
80405;BME280;69733;48.744;9.176;2023-07-29T07:37:51;96335.28;;;18.58;89.45
80405;BME280;69733;48.744;9.176;2023-07-29T07:40:16;96328.06;;;18.72;88.48
80405;BME280;69733;48.744;9.176;2023-07-29T07:42:41;96326.53;;;18.85;88.28
80405;BME280;69733;48.744;9.176;2023-07-29T07:45:07;96338.78;;;18.96;87.77
80405;BME280;69733;48.744;9.176;2023-07-29T07:47:32;96341.09;;;19.03;87.92
80405;BME280;69733;48.744;9.176;2023-07-29T07:49:57;96343.72;;;19.08;87.57
80405;BME280;69733;48.744;9.176;2023-07-29T07:52:25;96350.19;;;19.07;87.55
80405;BME280;69733;48.744;9.176;2023-07-29T07:55:00;96343.06;;;19.16;87.44
80405;BME280;69733;48.744;9.176;2023-07-29T07:57:25;96337.19;;;19.27;86.99
80405;BME280;69733;48.744;9.176;2023-07-29T07:59:50;96335.44;;;19.36;86.84
80405;BME280;69733;48.744;9.176;2023-07-29T08:02:20;96333.75;;;19.41;86.72
80405;BME280;69733;48.744;9.176;2023-07-29T08:04:45;96337.13;;;19.51;86.52
80405;BME280;69733;48.744;9.176;2023-07-29T08:07:10;96354.53;;;19.59;86.28
80405;BME280;69733;48.744;9.176;2023-07-29T08:09:36;96344.16;;;19.66;86.21
80405;BME280;69733;48.744;9.176;2023-07-29T08:12:01;96344.78;;;19.76;86.19
80405;BME280;69733;48.744;9.176;2023-07-29T08:14:26;96350.06;;;19.95;85.52
80405;BME280;69733;48.744;9.176;2023-07-29T08:16:52;96348.69;;;20.25;84.61
80405;BME280;69733;48.744;9.176;2023-07-29T08:19:17;96357.53;;;20.58;83.87
80405;BME280;69733;48.744;9.176;2023-07-29T08:21:43;96366.28;;;20.77;83.51
80405;BME280;69733;48.744;9.176;2023-07-29T08:24:08;96363.34;;;20.87;83.65
80405;BME280;69733;48.744;9.176;2023-07-29T08:26:33;96363.16;;;20.97;83.54
80405;BME280;69733;48.744;9.176;2023-07-29T08:28:59;96366.72;;;21.06;83.31
80405;BME280;69733;48.744;9.176;2023-07-29T08:31:24;96366.03;;;21.14;83.33
80405;BME280;69733;48.744;9.176;2023-07-29T08:33:49;96365.91;;;21.19;83.57
80405;BME280;69733;48.744;9.176;2023-07-29T08:36:15;96361.84;;;21.30;83.46
80405;BME280;69733;48.744;9.176;2023-07-29T08:38:40;96363.81;;;21.39;83.68
80405;BME280;69733;48.744;9.176;2023-07-29T08:41:19;96362.84;;;21.57;83.13
80405;BME280;69733;48.744;9.176;2023-07-29T08:44:01;96366.31;;;21.79;82.69
80405;BME280;69733;48.744;9.176;2023-07-29T08:46:28;96360.09;;;22.01;82.03
80405;BME280;69733;48.744;9.176;2023-07-29T08:48:55;96356.03;;;22.21;81.77
80405;BME280;69733;48.744;9.176;2023-07-29T08:51:21;96355.34;;;22.55;80.88
80405;BME280;69733;48.744;9.176;2023-07-29T08:53:47;96350.63;;;22.86;80.31
80405;BME280;69733;48.744;9.176;2023-07-29T08:56:13;96359.75;;;23.33;79.46
80405;BME280;69733;48.744;9.176;2023-07-29T08:58:39;96346.03;;;24.19;77.57
80405;BME280;69733;48.744;9.176;2023-07-29T09:01:05;96351.69;;;24.72;76.37
80405;BME280;69733;48.744;9.176;2023-07-29T09:03:31;96356.56;;;25.08;76.09
80405;BME280;69733;48.744;9.176;2023-07-29T09:05:57;96362.81;;;25.09;76.61
80405;BME280;69733;48.744;9.176;2023-07-29T09:08:25;96358.16;;;24.89;77.90
80405;BME280;69733;48.744;9.176;2023-07-29T09:10:51;96354.59;;;24.67;78.78
80405;BME280;69733;48.744;9.176;2023-07-29T09:13:17;96348.81;;;24.40;80.11
80405;BME280;69733;48.744;9.176;2023-07-29T09:15:42;96336.72;;;24.28;80.75
80405;BME280;69733;48.744;9.176;2023-07-29T09:18:19;96349.72;;;24.14;80.99
80405;BME280;69733;48.744;9.176;2023-07-29T09:20:49;96338.06;;;24.14;80.88
80405;BME280;69733;48.744;9.176;2023-07-29T09:23:14;96336.69;;;24.37;80.53
80405;BME280;69733;48.744;9.176;2023-07-29T09:25:40;96333.22;;;24.78;79.53
80405;BME280;69733;48.744;9.176;2023-07-29T09:28:13;96334.69;;;25.25;78.26
80405;BME280;69733;48.744;9.176;2023-07-29T09:30:39;96326.78;;;25.65;77.45
80405;BME280;69733;48.744;9.176;2023-07-29T09:33:05;96320.53;;;25.65;77.51
80405;BME280;69733;48.744;9.176;2023-07-29T09:35:33;96327.91;;;25.44;78.74
80405;BME280;69733;48.744;9.176;2023-07-29T09:37:59;96326.50;;;25.25;79.24
80405;BME280;69733;48.744;9.176;2023-07-29T09:40:24;96331.16;;;25.04;80.26
80405;BME280;69733;48.744;9.176;2023-07-29T09:42:51;96332.94;;;25.00;80.35
80405;BME280;69733;48.744;9.176;2023-07-29T09:45:24;96344.28;;;25.02;80.00
80405;BME280;69733;48.744;9.176;2023-07-29T09:47:52;96354.25;;;24.98;80.62
80405;BME280;69733;48.744;9.176;2023-07-29T09:50:18;96342.31;;;25.11;80.00
80405;BME280;69733;48.744;9.176;2023-07-29T09:52:44;96330.88;;;25.18;79.59
80405;BME280;69733;48.744;9.176;2023-07-29T09:55:13;96330.09;;;25.17;79.91
80405;BME280;69733;48.744;9.176;2023-07-29T09:57:40;96342.44;;;25.15;79.77
80405;BME280;69733;48.744;9.176;2023-07-29T10:00:06;96339.47;;;25.41;78.80
80405;BME280;69733;48.744;9.176;2023-07-29T10:02:37;96317.47;;;26.48;75.71
80405;BME280;69733;48.744;9.176;2023-07-29T10:05:03;96316.03;;;27.42;73.17
80405;BME280;69733;48.744;9.176;2023-07-29T10:07:29;96324.25;;;28.13;71.39
80405;BME280;69733;48.744;9.176;2023-07-29T10:09:55;96311.84;;;28.66;70.53
80405;BME280;69733;48.744;9.176;2023-07-29T10:12:21;96324.41;;;28.52;71.05
80405;BME280;69733;48.744;9.176;2023-07-29T10:14:47;96308.44;;;28.38;71.92
80405;BME280;69733;48.744;9.176;2023-07-29T10:17:15;96314.69;;;28.70;71.57
80405;BME280;69733;48.744;9.176;2023-07-29T10:19:41;96311.31;;;29.11;70.35
80405;BME280;69733;48.744;9.176;2023-07-29T10:22:08;96317.03;;;29.41;70.17
80405;BME280;69733;48.744;9.176;2023-07-29T10:24:35;96311.28;;;29.69;69.03
80405;BME280;69733;48.744;9.176;2023-07-29T10:27:05;96317.59;;;29.89;68.78
80405;BME280;69733;48.744;9.176;2023-07-29T10:29:31;96313.75;;;29.93;69.04
80405;BME280;69733;48.744;9.176;2023-07-29T10:32:02;96321.13;;;29.70;69.61
80405;BME280;69733;48.744;9.176;2023-07-29T10:34:29;96313.56;;;29.63;69.11
80405;BME280;69733;48.744;9.176;2023-07-29T10:36:55;96315.25;;;29.91;68.13
80405;BME280;69733;48.744;9.176;2023-07-29T10:39:21;96315.63;;;30.12;65.11
80405;BME280;69733;48.744;9.176;2023-07-29T10:41:57;96317.84;;;29.84;67.15
80405;BME280;69733;48.744;9.176;2023-07-29T10:47:12;96317.31;;;29.55;65.48
80405;BME280;69733;48.744;9.176;2023-07-29T10:49:45;96321.50;;;29.30;64.96
80405;BME280;69733;48.744;9.176;2023-07-29T10:52:15;96315.00;;;28.84;63.81
80405;BME280;69733;48.744;9.176;2023-07-29T10:54:50;96312.75;;;28.55;63.44
80405;BME280;69733;48.744;9.176;2023-07-29T10:57:18;96311.88;;;28.51;62.19
80405;BME280;69733;48.744;9.176;2023-07-29T10:59:56;96306.50;;;28.07;61.79
80405;BME280;69733;48.744;9.176;2023-07-29T11:02:28;96303.13;;;27.98;61.04
80405;BME280;69733;48.744;9.176;2023-07-29T11:04:54;96309.56;;;27.90;60.04
80405;BME280;69733;48.744;9.176;2023-07-29T11:07:21;96312.00;;;27.95;59.06
80405;BME280;69733;48.744;9.176;2023-07-29T11:10:00;96313.09;;;28.06;58.20
80405;BME280;69733;48.744;9.176;2023-07-29T11:17:36;96326.25;;;27.57;56.94
80405;BME280;69733;48.744;9.176;2023-07-29T11:20:02;96331.88;;;27.49;56.59
80405;BME280;69733;48.744;9.176;2023-07-29T11:22:28;96314.81;;;27.67;55.75
80405;BME280;69733;48.744;9.176;2023-07-29T11:24:54;96311.94;;;27.92;54.97
80405;BME280;69733;48.744;9.176;2023-07-29T11:27:20;96322.69;;;27.85;54.97
80405;BME280;69733;48.744;9.176;2023-07-29T11:29:46;96319.00;;;27.77;54.46
80405;BME280;69733;48.744;9.176;2023-07-29T11:32:12;96327.00;;;27.70;53.92
80405;BME280;69733;48.744;9.176;2023-07-29T11:34:37;96314.31;;;27.50;53.65
80405;BME280;69733;48.744;9.176;2023-07-29T11:37:05;96314.69;;;27.48;53.27
80405;BME280;69733;48.744;9.176;2023-07-29T11:39:31;96307.13;;;27.57;52.84
80405;BME280;69733;48.744;9.176;2023-07-29T11:42:00;96301.66;;;27.57;52.48
80405;BME280;69733;48.744;9.176;2023-07-29T11:44:28;96306.06;;;27.62;52.05
80405;BME280;69733;48.744;9.176;2023-07-29T11:46:54;96298.41;;;27.67;51.73
80405;BME280;69733;48.744;9.176;2023-07-29T11:49:22;96292.50;;;27.65;51.88
80405;BME280;69733;48.744;9.176;2023-07-29T11:51:48;96290.56;;;27.82;51.24
80405;BME280;69733;48.744;9.176;2023-07-29T11:54:15;96304.44;;;27.89;50.96
80405;BME280;69733;48.744;9.176;2023-07-29T11:56:40;96300.66;;;27.93;51.60
80405;BME280;69733;48.744;9.176;2023-07-29T11:59:06;96294.22;;;28.01;50.74
80405;BME280;69733;48.744;9.176;2023-07-29T12:01:32;96300.13;;;28.03;50.70
80405;BME280;69733;48.744;9.176;2023-07-29T12:03:58;96299.09;;;28.08;50.45
80405;BME280;69733;48.744;9.176;2023-07-29T12:06:24;96299.91;;;28.08;50.46
80405;BME280;69733;48.744;9.176;2023-07-29T12:08:50;96291.19;;;28.06;50.14
80405;BME280;69733;48.744;9.176;2023-07-29T12:11:16;96302.06;;;28.03;49.82
80405;BME280;69733;48.744;9.176;2023-07-29T12:13:42;96289.28;;;27.91;50.04
80405;BME280;69733;48.744;9.176;2023-07-29T12:16:15;96288.81;;;27.89;49.39
80405;BME280;69733;48.744;9.176;2023-07-29T12:19:00;96292.03;;;27.63;49.07
80405;BME280;69733;48.744;9.176;2023-07-29T12:21:26;96287.81;;;27.66;48.69
80405;BME280;69733;48.744;9.176;2023-07-29T12:23:51;96290.22;;;27.83;48.21
80405;BME280;69733;48.744;9.176;2023-07-29T12:26:16;96281.66;;;28.00;48.08
80405;BME280;69733;48.744;9.176;2023-07-29T12:28:46;96277.38;;;28.15;48.24
80405;BME280;69733;48.744;9.176;2023-07-29T12:31:12;96283.28;;;28.17;48.00
80405;BME280;69733;48.744;9.176;2023-07-29T12:33:37;96287.78;;;28.25;48.00
80405;BME280;69733;48.744;9.176;2023-07-29T12:36:28;96287.63;;;28.18;47.64
80405;BME280;69733;48.744;9.176;2023-07-29T12:39:05;96283.75;;;28.19;47.77
80405;BME280;69733;48.744;9.176;2023-07-29T12:41:30;96284.44;;;28.16;47.66
80405;BME280;69733;48.744;9.176;2023-07-29T12:43:55;96289.16;;;28.03;47.69
80405;BME280;69733;48.744;9.176;2023-07-29T12:46:20;96285.53;;;27.99;47.19
80405;BME280;69733;48.744;9.176;2023-07-29T12:48:46;96285.53;;;27.99;46.89
80405;BME280;69733;48.744;9.176;2023-07-29T12:51:11;96281.25;;;27.98;47.08
80405;BME280;69733;48.744;9.176;2023-07-29T12:53:36;96283.16;;;27.82;47.11
80405;BME280;69733;48.744;9.176;2023-07-29T12:56:02;96281.19;;;27.67;47.16
80405;BME280;69733;48.744;9.176;2023-07-29T12:58:27;96276.69;;;27.59;46.91
80405;BME280;69733;48.744;9.176;2023-07-29T13:00:52;96287.09;;;27.53;46.55
80405;BME280;69733;48.744;9.176;2023-07-29T13:03:19;96282.78;;;27.52;46.54
80405;BME280;69733;48.744;9.176;2023-07-29T13:05:44;96292.59;;;27.41;46.42
80405;BME280;69733;48.744;9.176;2023-07-29T13:08:10;96286.66;;;27.39;46.59
80405;BME280;69733;48.744;9.176;2023-07-29T13:10:35;96284.25;;;27.50;46.09
80405;BME280;69733;48.744;9.176;2023-07-29T13:13:00;96275.09;;;27.58;45.91